Time;durP1;ratioP1;P1;durP2;ratioP2;P2;SDS_P1;SDS_P2;PMS_P1;PMS_P2;Temp;Humidity;BMP_temperature;BMP_pressure;BME280_temperature;BME280_humidity;BME280_pressure;Samples;Min_cycle;Max_cycle;Signal;HPM_P1;HPM_P2
2020/12/05 00:02:25;;;;;;;36.35;18.30;;;;;;;3.47;77.46;99617.82;1696120;84;25807;-54
2020/12/05 00:04:52;;;;;;;34.00;19.57;;;;;;;3.49;77.57;99612.20;1696982;84;62661;-55
2020/12/05 00:07:19;;;;;;;32.83;18.52;;;;;;;3.49;77.56;99616.20;1703883;84;27592;-56
2020/12/05 00:09:46;;;;;;;32.42;18.35;;;;;;;3.51;77.44;99620.77;1703777;84;25756;-59
2020/12/05 00:12:13;;;;;;;33.20;18.85;;;;;;;3.51;77.51;99622.10;1703894;84;25992;-60
2020/12/05 00:14:40;;;;;;;36.40;18.35;;;;;;;3.51;77.46;99625.56;1703836;84;25892;-56
2020/12/05 00:17:08;;;;;;;36.30;18.92;;;;;;;3.51;77.52;99629.58;1703679;84;25711;-57
2020/12/05 00:19:35;;;;;;;36.73;19.07;;;;;;;3.53;77.53;99626.63;1704051;84;25836;-56
2020/12/05 00:22:02;;;;;;;36.73;20.00;;;;;;;3.52;77.56;99623.16;1703848;84;25805;-58
2020/12/05 00:24:29;;;;;;;31.55;18.67;;;;;;;3.55;77.63;99625.80;1703649;84;25777;-57
2020/12/05 00:26:56;;;;;;;35.13;18.85;;;;;;;3.54;77.59;99623.67;1703963;84;26172;-54
2020/12/05 00:29:23;;;;;;;35.58;18.48;;;;;;;3.54;77.51;99629.02;1703943;84;26146;-55
2020/12/05 00:31:53;;;;;;;34.48;18.45;;;;;;;3.53;77.50;99632.77;1703683;84;25894;-56
2020/12/05 00:34:21;;;;;;;36.00;18.82;;;;;;;3.54;77.61;99634.89;1703831;84;25936;-57
2020/12/05 00:36:48;;;;;;;36.30;20.10;;;;;;;3.54;77.61;99626.35;1703684;84;25626;-55
2020/12/05 00:39:15;;;;;;;36.53;19.10;;;;;;;3.55;77.70;99629.27;1679376;84;26264;-56
2020/12/05 00:41:41;;;;;;;36.05;19.05;;;;;;;3.56;77.67;99626.08;1703785;84;25866;-57
2020/12/05 00:44:08;;;;;;;35.00;18.87;;;;;;;3.55;77.59;99623.12;1703877;84;26004;-55
2020/12/05 00:46:35;;;;;;;38.08;18.02;;;;;;;3.55;77.67;99621.25;1703668;84;26054;-57
2020/12/05 00:49:02;;;;;;;34.18;18.80;;;;;;;3.54;77.67;99615.66;1704459;83;25668;-56
2020/12/05 00:51:28;;;;;;;36.10;20.35;;;;;;;3.54;77.78;99612.98;1704474;84;25710;-55
2020/12/05 00:53:55;;;;;;;35.25;19.05;;;;;;;3.56;77.70;99616.72;1704831;84;25625;-57
2020/12/05 00:56:22;;;;;;;33.40;18.15;;;;;;;3.58;77.92;99612.43;1704769;84;26327;-54
2020/12/05 00:58:49;;;;;;;33.05;18.48;;;;;;;3.59;77.81;99614.80;1704702;84;25746;-55
2020/12/05 01:01:16;;;;;;;31.77;19.07;;;;;;;3.64;77.88;99611.30;1704735;84;25600;-55
2020/12/05 01:03:45;;;;;;;34.23;18.82;;;;;;;3.66;77.79;99609.95;1704733;84;25750;-56
2020/12/05 01:06:16;;;;;;;33.92;19.25;;;;;;;3.67;77.78;99623.57;1705003;84;26026;-55
2020/12/05 01:08:44;;;;;;;37.75;19.95;;;;;;;3.69;77.80;99597.34;1704745;84;26795;-56
2020/12/05 01:11:16;;;;;;;36.15;19.90;;;;;;;3.71;77.73;99614.44;1704703;84;25694;-56
2020/12/05 01:13:46;;;;;;;34.73;19.57;;;;;;;3.70;77.63;99608.30;1704880;84;25671;-57
2020/12/05 01:16:16;;;;;;;32.15;18.32;;;;;;;3.71;77.64;99609.91;1704191;84;25692;-55
2020/12/05 01:18:44;;;;;;;32.30;17.77;;;;;;;3.73;77.65;99610.97;1704059;84;25687;-57
2020/12/05 01:21:15;;;;;;;31.27;18.23;;;;;;;3.75;77.67;99606.14;1704653;84;25796;-54
2020/12/05 01:23:43;;;;;;;30.23;17.50;;;;;;;3.79;77.66;99622.42;1704821;84;25660;-56
2020/12/05 01:26:10;;;;;;;29.95;17.57;;;;;;;3.80;77.58;99616.80;1704839;84;26488;-55
2020/12/05 01:28:37;;;;;;;32.85;17.90;;;;;;;3.81;77.52;99629.08;1704732;84;26331;-55
2020/12/05 01:31:05;;;;;;;29.32;16.67;;;;;;;3.82;77.50;99617.31;1704828;84;25768;-55
2020/12/05 01:33:32;;;;;;;29.70;17.70;;;;;;;3.83;77.50;99619.44;1704897;84;25714;-57
2020/12/05 01:36:00;;;;;;;29.98;17.75;;;;;;;3.85;77.57;99626.12;1704798;84;25773;-56
2020/12/05 01:38:28;;;;;;;31.35;17.12;;;;;;;3.87;77.52;99646.70;1704746;84;25617;-54
2020/12/05 01:40:58;;;;;;;34.53;17.73;;;;;;;3.91;77.47;99628.20;1704782;84;25642;-56
2020/12/05 01:43:26;;;;;;;37.53;19.02;;;;;;;3.89;77.35;99625.80;1704791;84;25689;-56
2020/12/05 01:45:54;;;;;;;32.55;18.52;;;;;;;3.91;77.44;99627.66;1704898;84;25791;-56
2020/12/05 01:48:21;;;;;;;36.65;18.77;;;;;;;3.92;77.41;99619.11;1704466;84;25748;-56
2020/12/05 01:50:50;;;;;;;28.67;17.73;;;;;;;3.92;77.38;99619.89;1704116;83;25638;-57
2020/12/05 01:53:17;;;;;;;34.85;18.07;;;;;;;3.94;77.36;99635.67;1677645;84;25717;-56
2020/12/05 01:55:46;;;;;;;34.95;18.23;;;;;;;3.94;77.35;99628.98;1704145;84;25871;-57
2020/12/05 01:58:14;;;;;;;30.43;16.70;;;;;;;3.95;77.40;99619.07;1703972;84;26211;-57
2020/12/05 02:00:42;;;;;;;28.42;16.60;;;;;;;3.96;77.46;99620.68;1703975;84;25718;-57
2020/12/05 02:03:11;;;;;;;32.03;16.23;;;;;;;3.97;77.43;99613.71;1704139;84;25640;-57
2020/12/05 02:06:02;;;;;;;33.57;18.03;;;;;;;3.99;77.52;99620.91;1704328;84;25655;-55
2020/12/05 02:08:49;;;;;;;32.80;18.02;;;;;;;4.04;77.53;99626.22;1704267;84;25699;-58
2020/12/05 02:11:18;;;;;;;32.00;18.57;;;;;;;4.09;77.47;99631.52;1704063;84;25732;-56
2020/12/05 02:13:47;;;;;;;29.98;16.73;;;;;;;4.14;77.38;99620.50;1704161;84;25649;-56
2020/12/05 02:16:15;;;;;;;34.75;18.50;;;;;;;4.15;77.31;99620.77;1704268;84;26016;-58
2020/12/05 02:18:45;;;;;;;30.55;17.35;;;;;;;4.16;77.21;99621.04;1704104;84;25760;-57
2020/12/05 02:21:12;;;;;;;;;;;;;;;4.17;77.20;99621.28;1706632;84;26300;-56
2020/12/05 02:23:39;;;;;;;28.47;16.35;;;;;;;4.18;77.11;99628.24;1707109;83;26681;-55
2020/12/05 02:26:09;;;;;;;31.90;16.67;;;;;;;4.20;77.06;99626.08;1688591;83;26011;-55
2020/12/05 02:28:36;;;;;;;30.12;16.20;;;;;;;4.21;77.04;99609.73;1707253;83;26337;-55
2020/12/05 02:31:03;;;;;;;27.45;17.12;;;;;;;4.21;76.97;99611.07;1707094;83;25726;-57
2020/12/05 02:33:30;;;;;;;29.87;16.30;;;;;;;4.20;76.97;99612.14;1707176;83;25577;-56
2020/12/05 02:35:56;;;;;;;30.55;17.02;;;;;;;4.24;77.00;99611.03;1707227;83;26175;-55
2020/12/05 02:38:31;;;;;;;26.77;15.72;;;;;;;4.25;76.99;99605.39;1707044;83;25662;-56
2020/12/05 02:40:58;;;;;;;27.58;16.40;;;;;;;4.28;76.99;99611.53;1707202;83;25698;-55
2020/12/05 02:43:26;;;;;;;27.30;16.42;;;;;;;4.34;76.88;99623.52;1707097;83;25716;-56
2020/12/05 02:45:55;;;;;;;26.10;15.08;;;;;;;4.38;77.00;99617.33;1707199;83;25688;-55
2020/12/05 02:48:22;;;;;;;25.83;15.40;;;;;;;4.42;76.88;99611.65;1707341;83;26544;-54
2020/12/05 02:50:49;;;;;;;29.20;15.68;;;;;;;4.43;76.78;99619.95;1726337;82;25890;-55
2020/12/05 02:53:15;;;;;;;31.20;16.37;;;;;;;4.45;76.59;99628.49;1733351;82;25705;-55
2020/12/05 02:55:42;;;;;;;27.90;16.52;;;;;;;4.49;76.64;99624.18;1731947;82;26166;-56
2020/12/05 02:58:09;;;;;;;31.60;16.30;;;;;;;4.50;76.47;99626.31;1733415;82;26236;-55
2020/12/05 03:00:36;;;;;;;29.82;16.62;;;;;;;4.52;76.49;99625.48;1733373;82;25778;-55
2020/12/05 03:03:02;;;;;;;27.30;15.58;;;;;;;4.53;76.37;99617.71;1732045;82;25709;-55
2020/12/05 03:05:30;;;;;;;30.92;17.05;;;;;;;4.54;76.32;99616.61;1733498;82;25698;-56
2020/12/05 03:07:57;;;;;;;27.93;16.05;;;;;;;4.55;76.24;99622.23;1733480;82;25783;-57
2020/12/05 03:10:23;;;;;;;27.35;15.90;;;;;;;4.55;76.20;99622.23;1733749;82;25715;-56
2020/12/05 03:12:50;;;;;;;25.25;15.83;;;;;;;4.56;76.18;99625.70;1704315;84;27356;-55
2020/12/05 03:15:17;;;;;;;26.35;15.43;;;;;;;4.53;76.17;99629.77;1732295;82;25759;-56
2020/12/05 03:17:43;;;;;;;24.45;15.38;;;;;;;4.53;76.15;99631.62;1733743;82;25616;-57
2020/12/05 03:20:11;;;;;;;27.30;16.57;;;;;;;4.52;76.07;99638.08;1733837;82;25834;-56
2020/12/05 03:22:38;;;;;;;28.20;16.70;;;;;;;4.51;76.16;99645.84;1732410;82;25712;-55
2020/12/05 03:25:04;;;;;;;31.20;15.85;;;;;;;4.49;76.18;99637.58;1733844;82;25786;-56
2020/12/05 03:27:31;;;;;;;26.00;15.45;;;;;;;4.48;76.15;99635.97;1733579;82;25595;-56
2020/12/05 03:30:00;;;;;;;28.02;16.65;;;;;;;4.47;76.18;99637.59;1733651;82;25608;-57
2020/12/05 03:32:30;;;;;;;28.32;16.32;;;;;;;4.44;76.14;99644.33;1733394;82;25784;-56
2020/12/05 03:34:58;;;;;;;28.47;16.37;;;;;;;4.43;76.16;99640.59;1733925;82;25685;-56
2020/12/05 03:37:25;;;;;;;26.55;15.90;;;;;;;4.40;76.11;99635.23;1733829;82;26303;-54
2020/12/05 03:39:52;;;;;;;28.87;16.67;;;;;;;4.37;76.22;99639.82;1733682;82;25651;-55
2020/12/05 03:42:19;;;;;;;27.67;16.30;;;;;;;4.36;76.30;99637.42;1733712;82;26064;-55
2020/12/05 03:44:46;;;;;;;28.95;15.85;;;;;;;4.36;76.39;99641.44;1733609;82;25625;-56
2020/12/05 03:47:13;;;;;;;31.95;16.80;;;;;;;4.34;76.35;99648.41;1733645;82;25733;-55
2020/12/05 03:49:39;;;;;;;30.55;16.97;;;;;;;4.32;76.46;99655.14;1701977;84;26251;-53
2020/12/05 03:52:06;;;;;;;27.82;17.70;;;;;;;4.32;76.59;99661.29;1695918;84;25762;-56
2020/12/05 03:54:33;;;;;;;24.80;15.15;;;;;;;4.31;76.59;99662.39;1704266;84;25775;-57
2020/12/05 03:57:00;;;;;;;28.45;16.15;;;;;;;4.32;76.62;99664.52;1704290;84;25664;-57
2020/12/05 03:59:28;;;;;;;24.75;15.58;;;;;;;4.32;76.57;99667.20;1704275;84;25739;-57
2020/12/05 04:01:55;;;;;;;32.80;17.15;;;;;;;4.29;76.51;99659.98;1704293;84;25852;-54
2020/12/05 04:04:22;;;;;;;32.50;18.02;;;;;;;4.28;76.53;99665.63;1704224;84;25791;-56
2020/12/05 04:06:49;;;;;;;28.75;16.70;;;;;;;4.27;76.53;99658.66;1704291;84;25661;-57
2020/12/05 04:09:16;;;;;;;28.80;15.68;;;;;;;4.26;76.67;99663.77;1704204;84;25655;-56
2020/12/05 04:11:43;;;;;;;27.93;16.67;;;;;;;4.25;76.66;99663.50;1704217;84;25730;-57
2020/12/05 04:14:10;;;;;;;29.75;16.30;;;;;;;4.24;76.79;99650.67;1704317;84;27249;-56
2020/12/05 04:16:38;;;;;;;33.05;16.90;;;;;;;4.24;76.71;99657.88;1704115;84;25871;-56
2020/12/05 04:19:05;;;;;;;31.00;17.50;;;;;;;4.23;76.77;99657.64;1704134;84;25710;-56
2020/12/05 04:21:32;;;;;;;30.65;17.62;;;;;;;4.22;76.86;99656.03;1704120;84;25658;-55
2020/12/05 04:23:59;;;;;;;30.15;16.17;;;;;;;4.23;76.99;99648.27;1704123;84;25706;-56
2020/12/05 04:26:26;;;;;;;29.82;16.93;;;;;;;4.22;77.10;99640.79;1704101;84;25938;-55
2020/12/05 04:28:52;;;;;;;35.43;19.42;;;;;;;4.23;77.02;99657.09;1703989;84;25666;-57
2020/12/05 04:31:19;;;;;;;32.13;17.12;;;;;;;4.23;77.04;99665.67;1704199;84;25677;-57
2020/12/05 04:33:46;;;;;;;35.55;19.30;;;;;;;4.22;77.07;99678.78;1704215;84;26360;-57
2020/12/05 04:36:12;;;;;;;28.38;17.20;;;;;;;4.20;77.11;99697.80;1704410;84;25650;-55
2020/12/05 04:38:39;;;;;;;32.63;18.07;;;;;;;4.21;77.16;99697.28;1704222;84;26231;-58
2020/12/05 04:41:06;;;;;;;32.15;18.48;;;;;;;4.21;77.33;99675.88;1704155;84;25641;-58
2020/12/05 04:43:36;;;;;;;31.55;19.17;;;;;;;4.20;77.26;99685.75;1704265;84;25725;-57
2020/12/05 04:46:03;;;;;;;34.80;18.48;;;;;;;4.19;77.35;99681.50;1704321;84;25570;-58
2020/12/05 04:48:34;;;;;;;31.52;18.23;;;;;;;4.19;77.32;99680.68;1704326;84;26299;-58
2020/12/05 04:51:03;;;;;;;36.90;18.77;;;;;;;4.17;77.38;99686.86;1704219;84;25825;-56
2020/12/05 04:53:31;;;;;;;;;;;;;;;4.16;77.53;99682.06;1706754;84;25746;-57
2020/12/05 04:55:59;;;;;;;33.85;18.07;;;;;;;4.17;77.66;99700.25;1704246;84;25847;-57
2020/12/05 04:58:27;;;;;;;33.33;17.67;;;;;;;4.17;77.72;99700.25;1704352;84;25643;-56
2020/12/05 05:00:57;;;;;;;33.15;17.60;;;;;;;4.15;77.66;99699.19;1704277;84;25601;-56
2020/12/05 05:03:26;;;;;;;32.05;17.35;;;;;;;4.14;77.91;99710.98;1704449;84;25783;-56
2020/12/05 05:05:58;;;;;;;33.88;18.35;;;;;;;4.15;77.88;99706.42;1704469;84;25696;-56
2020/12/05 05:08:27;;;;;;;35.92;19.45;;;;;;;4.16;77.89;99707.48;1704414;84;25723;-55
2020/12/05 05:11:10;;;;;;;32.45;17.75;;;;;;;4.17;77.93;99698.91;1704581;84;25581;-57
2020/12/05 05:14:02;;;;;;;38.08;19.65;;;;;;;4.17;77.92;99704.27;1703937;84;25781;-57
2020/12/05 05:16:29;;;;;;;30.57;17.57;;;;;;;4.17;78.06;99705.08;1707114;83;27266;-58
2020/12/05 05:18:57;;;;;;;36.88;19.42;;;;;;;4.18;77.89;99699.18;1707227;83;25815;-59
2020/12/05 05:21:40;;;;;;;33.42;18.65;;;;;;;4.17;77.84;99705.59;1707278;83;25554;-57
2020/12/05 05:24:14;;;;;;;31.82;17.15;;;;;;;4.14;77.95;99700.28;1707307;83;25658;-56
2020/12/05 05:26:42;;;;;;;36.60;18.30;;;;;;;4.12;77.85;99706.46;1706931;83;25717;-53
2020/12/05 05:29:37;;;;;;;32.93;18.60;;;;;;;4.09;77.91;99701.11;1707622;83;26252;-55
2020/12/05 05:34:37;;;;;;;31.77;18.48;;;;;;;4.05;78.00;99708.63;1707327;83;25769;-57
2020/12/05 05:37:20;;;;;;;33.75;19.25;;;;;;;4.01;77.87;99698.24;1707357;83;25637;-57
2020/12/05 05:39:51;;;;;;;37.83;19.92;;;;;;;4.00;78.10;99697.97;1707718;83;25716;-56
2020/12/05 05:42:32;;;;;;;36.30;19.98;;;;;;;3.99;78.04;99711.11;1707317;83;25756;-57
2020/12/05 05:45:26;;;;;;;32.90;18.30;;;;;;;3.97;78.18;99708.70;1707341;83;25809;-56
2020/12/05 05:48:02;;;;;;;41.35;18.52;;;;;;;3.96;78.25;99706.31;1707498;83;25580;-58
2020/12/05 05:50:35;;;;;;;34.88;19.73;;;;;;;3.93;78.09;99708.47;1711942;82;26121;-58
2020/12/05 05:53:09;;;;;;;32.38;18.15;;;;;;;3.93;78.26;99708.98;1733764;82;25661;-55
2020/12/05 05:55:48;;;;;;;35.55;19.27;;;;;;;3.92;78.24;99721.58;1733787;82;26399;-56
2020/12/05 05:58:20;;;;;;;34.43;18.20;;;;;;;3.93;78.50;99708.98;1733637;82;25672;-57
2020/12/05 06:00:50;;;;;;;33.15;18.90;;;;;;;3.92;78.20;99717.56;1733724;82;25640;-56
2020/12/05 06:03:24;;;;;;;36.55;18.20;;;;;;;3.91;78.25;99722.64;1733880;82;26311;-57
2020/12/05 06:05:57;;;;;;;32.90;17.98;;;;;;;3.92;78.46;99728.81;1733020;82;25731;-57
2020/12/05 06:08:27;;;;;;;32.20;18.55;;;;;;;3.93;78.42;99735.75;1732961;82;26827;-54
2020/12/05 06:11:12;;;;;;;32.05;17.73;;;;;;;3.95;78.46;99734.13;1733764;82;25731;-57
2020/12/05 06:13:40;;;;;;;34.50;19.23;;;;;;;3.98;78.47;99740.27;1733834;82;25709;-55
2020/12/05 06:16:07;;;;;;;35.15;19.10;;;;;;;4.01;78.46;99735.16;1702988;83;25604;-55
2020/12/05 06:18:34;;;;;;;38.38;19.62;;;;;;;4.02;78.33;99739.45;1702915;84;25623;-56
2020/12/05 06:21:01;;;;;;;36.45;19.30;;;;;;;4.05;78.38;99748.78;1702918;84;26234;-55
2020/12/05 06:23:51;;;;;;;37.28;18.50;;;;;;;4.07;78.36;99746.62;1702869;83;26003;-51
2020/12/05 06:26:32;;;;;;;34.95;18.92;;;;;;;4.12;78.45;99742.59;1702893;84;25703;-56
2020/12/05 06:29:02;;;;;;;35.83;18.17;;;;;;;4.18;78.32;99749.49;1702938;84;25797;-57
2020/12/05 06:31:46;;;;;;;36.23;19.32;;;;;;;4.21;78.25;99742.25;1732197;82;25661;-50
2020/12/05 06:34:41;;;;;;;33.00;17.10;;;;;;;4.22;78.08;99745.71;1733771;82;25726;-57
2020/12/05 06:37:12;;;;;;;35.88;17.25;;;;;;;4.23;77.98;99750.80;1733736;82;26262;-52
2020/12/05 06:39:39;;;;;;;33.02;19.02;;;;;;;4.24;77.93;99752.41;1730055;82;25593;-57
2020/12/05 06:42:19;;;;;;;32.17;18.37;;;;;;;4.24;77.84;99748.91;1733703;82;25986;-48
2020/12/05 06:44:47;;;;;;;36.00;19.77;;;;;;;4.23;77.83;99745.44;1704202;84;52112;-51
2020/12/05 06:47:25;;;;;;;34.83;18.98;;;;;;;4.22;77.79;99746.53;1732440;82;26430;-58
2020/12/05 06:49:53;;;;;;;32.48;17.60;;;;;;;4.25;77.81;99753.19;1733778;82;25621;-48
2020/12/05 06:52:30;;;;;;;39.92;19.87;;;;;;;4.25;77.80;99750.52;1713122;82;25642;-56
2020/12/05 06:55:05;;;;;;;31.75;18.60;;;;;;;4.26;77.73;99754.80;1696172;84;25720;-47
2020/12/05 06:57:35;;;;;;;41.33;21.27;;;;;;;4.26;77.70;99760.16;1704559;84;25621;-60
2020/12/05 07:00:21;;;;;;;37.60;19.15;;;;;;;4.27;77.74;99753.70;1704681;84;25927;-49
2020/12/05 07:02:58;;;;;;;35.60;19.00;;;;;;;4.26;77.67;99755.59;1699833;82;25809;-54
2020/12/05 07:05:45;;;;;;;35.80;19.30;;;;;;;4.27;77.66;99766.57;1690715;84;26379;-55
2020/12/05 07:08:37;;;;;;;36.42;17.50;;;;;;;4.29;77.76;99760.39;1711867;82;25655;-54
2020/12/05 07:11:12;;;;;;;34.98;18.32;;;;;;;4.31;77.82;99758.78;1713327;82;25757;-52
2020/12/05 07:13:46;;;;;;;35.40;18.52;;;;;;;4.37;78.00;99765.67;1712098;82;25980;-52
2020/12/05 07:16:24;;;;;;;32.13;19.27;;;;;;;4.42;77.84;99764.29;1732763;82;26446;-52
2020/12/05 07:18:59;;;;;;;34.05;18.70;;;;;;;4.46;77.77;99762.67;1706173;82;26435;-54
2020/12/05 07:21:29;;;;;;;37.48;19.75;;;;;;;4.51;77.68;99765.03;1718829;82;25747;-54
2020/12/05 07:23:56;;;;;;;33.18;18.57;;;;;;;4.55;77.63;99774.91;1707202;82;25701;-55
2020/12/05 07:26:24;;;;;;;36.42;18.90;;;;;;;4.60;77.60;99778.88;1710068;82;25795;-54
2020/12/05 07:28:55;;;;;;;34.50;19.23;;;;;;;4.63;77.53;99780.19;1709061;82;25740;-55
2020/12/05 07:31:22;;;;;;;36.58;19.48;;;;;;;4.68;77.48;99776.12;1713511;82;25854;-56
2020/12/05 07:33:49;;;;;;;37.15;19.92;;;;;;;4.73;77.46;99771.27;1713004;82;25756;-55
2020/12/05 07:36:17;;;;;;;37.73;18.77;;;;;;;4.77;77.39;99769.64;1709009;82;25696;-56
2020/12/05 07:38:46;;;;;;;38.30;19.55;;;;;;;4.81;77.38;99768.77;1708855;82;28048;-53
2020/12/05 07:41:18;;;;;;;38.65;20.60;;;;;;;4.87;77.32;99776.23;1707337;82;25687;-55
2020/12/05 07:43:46;;;;;;;33.98;19.52;;;;;;;4.96;77.34;99772.39;1709484;82;25778;-53
2020/12/05 07:46:15;;;;;;;36.23;19.62;;;;;;;5.07;77.29;99778.44;1713274;82;25863;-54
2020/12/05 07:48:43;;;;;;;34.43;19.70;;;;;;;5.17;77.26;99778.33;1712437;82;25760;-57
2020/12/05 07:51:15;;;;;;;33.63;18.62;;;;;;;5.27;76.94;99788.94;1715077;82;25880;-54
2020/12/05 07:53:44;;;;;;;31.93;18.70;;;;;;;5.37;76.88;99784.00;1718169;82;25710;-52
2020/12/05 07:56:17;;;;;;;34.13;19.02;;;;;;;5.48;76.81;99784.12;1717303;82;26085;-53
2020/12/05 07:58:56;;;;;;;34.73;19.00;;;;;;;5.58;76.70;99792.59;1716599;82;25759;-56
2020/12/05 08:01:34;;;;;;;35.43;19.20;;;;;;;5.71;76.54;99799.16;1722267;82;27084;-53
2020/12/05 08:04:10;;;;;;;36.85;19.67;;;;;;;5.84;76.49;99808.36;1718713;82;26296;-54
2020/12/05 08:07:05;;;;;;;36.55;19.70;;;;;;;5.93;76.15;99799.94;1692756;82;25694;-55
2020/12/05 08:09:38;;;;;;;35.45;17.67;;;;;;;6.03;75.65;99808.39;1692449;82;25630;-55
2020/12/05 08:12:13;;;;;;;36.77;18.73;;;;;;;6.13;75.61;99814.96;1710938;82;25643;-53
2020/12/05 08:14:44;;;;;;;31.90;18.80;;;;;;;6.22;75.55;99815.13;1718652;82;25708;-55
2020/12/05 08:17:11;;;;;;;33.63;19.02;;;;;;;6.32;74.79;99815.77;1716904;82;25756;-54
2020/12/05 08:19:42;;;;;;;33.15;18.20;;;;;;;6.40;74.79;99812.16;1715671;82;25780;-50
2020/12/05 08:22:09;;;;;;;30.60;17.60;;;;;;;6.47;74.14;99817.43;1713708;82;26288;-55
2020/12/05 08:24:51;;;;;;;32.90;18.85;;;;;;;6.55;74.44;99819.98;1704274;82;25676;-56
2020/12/05 08:27:19;;;;;;;31.15;18.45;;;;;;;6.60;74.06;99817.77;1702888;83;25670;-54
2020/12/05 08:29:50;;;;;;;36.10;19.25;;;;;;;6.67;74.19;99827.59;1702660;82;25845;-55
2020/12/05 08:32:23;;;;;;;35.43;19.50;;;;;;;6.72;74.11;99824.81;1702252;82;25728;-55
2020/12/05 08:34:53;;;;;;;34.70;19.15;;;;;;;6.78;73.06;99821.52;1701371;82;25703;-53
2020/12/05 08:37:25;;;;;;;33.75;18.87;;;;;;;6.83;73.44;99829.49;1698962;83;25841;-54
2020/12/05 08:39:54;;;;;;;39.03;20.00;;;;;;;6.85;73.49;99829.44;1702214;83;25867;-55
2020/12/05 08:42:21;;;;;;;34.63;18.95;;;;;;;6.90;73.11;99833.94;1702705;83;25923;-52
2020/12/05 08:44:48;;;;;;;35.25;19.00;;;;;;;7.01;73.41;99842.61;1707767;82;26428;-52
2020/12/05 08:47:15;;;;;;;29.82;18.65;;;;;;;6.99;73.18;99827.33;1703237;82;26351;-51
2020/12/05 08:49:45;;;;;;;31.93;18.73;;;;;;;7.04;73.06;99831.27;1702756;84;25699;-53
2020/12/05 08:52:12;;;;;;;33.35;19.48;;;;;;;7.09;72.86;99833.87;1697795;82;25657;-54
2020/12/05 08:54:51;;;;;;;32.35;19.52;;;;;;;7.16;72.98;99824.06;1709403;83;25789;-54
2020/12/05 08:57:19;;;;;;;30.60;18.97;;;;;;;7.21;72.43;99832.04;1709615;83;25702;-54
2020/12/05 08:59:48;;;;;;;32.67;18.70;;;;;;;7.31;72.34;99822.44;1721643;83;25735;-54
2020/12/05 09:02:16;;;;;;;29.00;18.15;;;;;;;7.43;72.74;99820.04;1709227;83;25692;-54
2020/12/05 09:04:42;;;;;;;33.80;18.30;;;;;;;7.51;72.38;99836.05;1709366;83;25647;-55
2020/12/05 09:07:18;;;;;;;29.98;17.32;;;;;;;7.60;71.90;99834.23;1709262;83;25725;-54
2020/12/05 09:09:47;;;;;;;29.70;17.27;;;;;;;7.65;70.29;99827.41;1721646;83;25739;-54
2020/12/05 09:12:17;;;;;;;30.97;17.97;;;;;;;7.72;71.57;99825.66;1709602;83;25759;-55
2020/12/05 09:14:47;;;;;;;30.50;18.40;;;;;;;7.76;71.25;99829.33;1709353;83;25713;-54
2020/12/05 09:17:24;;;;;;;31.27;17.75;;;;;;;7.81;71.47;99836.52;1721832;83;25661;-55
2020/12/05 09:19:58;;;;;;;33.38;18.17;;;;;;;7.84;70.91;99843.44;1709355;83;25744;-56
2020/12/05 09:22:30;;;;;;;32.53;17.70;;;;;;;7.86;71.33;99846.62;1708596;83;25747;-56
2020/12/05 09:24:57;;;;;;;35.40;18.87;;;;;;;7.92;71.13;99843.84;1701982;83;25816;-56
2020/12/05 09:27:39;;;;;;;31.68;19.02;;;;;;;7.95;71.21;99841.34;1721793;83;25681;-56
2020/12/05 09:30:13;;;;;;;33.23;19.45;;;;;;;8.00;71.15;99845.27;1709358;83;25688;-55
2020/12/05 09:32:48;;;;;;;30.02;18.12;;;;;;;8.08;70.46;99844.30;1730787;82;25928;-57
2020/12/05 09:35:18;;;;;;;31.27;18.48;;;;;;;8.13;71.21;99838.80;1732537;82;25588;-54
2020/12/05 09:37:46;;;;;;;33.48;19.57;;;;;;;8.20;70.62;99848.61;1732538;82;25672;-57
2020/12/05 09:40:16;;;;;;;33.20;18.37;;;;;;;8.24;70.42;99837.48;1732443;82;25800;-56
2020/12/05 09:42:44;;;;;;;32.45;18.52;;;;;;;8.26;69.85;99842.02;1732531;82;25770;-56
2020/12/05 09:45:13;;;;;;;33.15;20.17;;;;;;;8.26;70.00;99847.41;1732607;82;26279;-56
2020/12/05 09:47:41;;;;;;;35.00;19.20;;;;;;;8.28;69.97;99847.10;1732738;82;25993;-56
2020/12/05 09:50:08;;;;;;;32.83;17.50;;;;;;;8.35;70.20;99840.73;1732554;82;25821;-56
2020/12/05 09:52:34;;;;;;;30.88;17.57;;;;;;;8.45;69.98;99847.83;1730360;82;25684;-55
2020/12/05 09:55:02;;;;;;;31.57;18.62;;;;;;;8.53;70.14;99841.16;1727807;82;25633;-55
2020/12/05 09:57:29;;;;;;;29.72;18.73;;;;;;;8.64;69.84;99843.05;1727614;82;27127;-56
2020/12/05 09:59:56;;;;;;;34.43;18.55;;;;;;;8.66;69.88;99831.39;1727637;82;25679;-55
2020/12/05 10:02:23;;;;;;;33.25;18.85;;;;;;;8.68;68.28;99825.13;1727719;82;25596;-54
2020/12/05 10:04:50;;;;;;;33.00;18.95;;;;;;;8.67;68.89;99846.48;1727677;82;25743;-56
2020/12/05 10:07:16;;;;;;;28.57;17.67;;;;;;;8.68;69.08;99840.53;1727688;82;25794;-56
2020/12/05 10:09:43;;;;;;;32.10;17.57;;;;;;;8.70;69.20;99840.48;1727599;82;26263;-55
2020/12/05 10:12:10;;;;;;;27.67;17.23;;;;;;;8.72;69.36;99834.78;1727820;82;25711;-55
2020/12/05 10:14:36;;;;;;;26.20;17.20;;;;;;;8.75;69.22;99838.19;1712065;82;25896;-55
2020/12/05 10:17:03;;;;;;;32.53;17.55;;;;;;;8.77;68.79;99842.75;1690472;83;25688;-55
2020/12/05 10:19:29;;;;;;;29.85;17.48;;;;;;;8.80;69.19;99844.80;1696953;82;25640;-55
2020/12/05 10:21:56;;;;;;;28.62;17.02;;;;;;;8.83;69.20;99837.45;1757930;81;26088;-55
2020/12/05 10:24:23;;;;;;;29.48;17.20;;;;;;;8.89;68.65;99843.53;1757905;81;25639;-55
2020/12/05 10:29:29;;;;;;;29.48;18.07;;;;;;;9.08;69.24;99844.10;1847024;76;34782;-55
2020/12/05 10:31:56;;;;;;;31.57;17.30;;;;;;;9.08;69.05;99842.75;1816928;78;25722;-54
2020/12/05 10:34:23;;;;;;;26.55;16.90;;;;;;;9.13;69.10;99829.70;1816955;78;25887;-54
2020/12/05 10:36:50;;;;;;;28.40;16.62;;;;;;;9.23;68.89;99832.66;1816880;78;25559;-55
2020/12/05 10:39:17;;;;;;;29.18;17.27;;;;;;;9.30;68.38;99833.81;1816912;78;25608;-56
2020/12/05 10:41:44;;;;;;;26.62;16.27;;;;;;;9.37;68.08;99831.23;1816882;78;25622;-53
2020/12/05 10:44:11;;;;;;;29.02;18.45;;;;;;;9.45;68.23;99829.09;1816945;78;25720;-56
2020/12/05 10:46:44;;;;;;;32.20;17.77;;;;;;;9.52;67.29;99842.95;1815249;77;26237;-55
2020/12/05 10:49:12;;;;;;;30.15;17.85;;;;;;;9.62;68.02;99840.50;1814777;79;25697;-55
2020/12/05 10:51:39;;;;;;;30.75;17.48;;;;;;;9.71;66.12;99857.54;1814850;79;25624;-55
2020/12/05 10:54:07;;;;;;;30.92;17.57;;;;;;;9.85;67.43;99837.94;1814853;79;25685;-56
2020/12/05 10:56:35;;;;;;;29.63;18.27;;;;;;;10.08;67.06;99839.97;1814877;79;25700;-55
2020/12/05 10:59:01;;;;;;;30.85;17.57;;;;;;;10.26;66.41;99847.52;1814974;79;27101;-56
2020/12/05 11:01:28;;;;;;;30.70;17.70;;;;;;;10.44;67.42;99857.04;1814712;79;25776;-56
2020/12/05 11:03:55;;;;;;;28.38;17.27;;;;;;;10.65;65.56;99863.37;1814896;79;25587;-56
2020/12/05 11:06:25;;;;;;;29.63;17.23;;;;;;;10.86;67.03;99855.16;1814875;79;25547;-56
2020/12/05 11:08:53;;;;;;;26.90;17.25;;;;;;;11.16;66.05;99860.11;1814893;79;25706;-57
2020/12/05 11:11:22;;;;;;;26.12;17.02;;;;;;;11.38;65.24;99854.45;1814863;78;25729;-57
2020/12/05 11:13:50;;;;;;;25.60;17.67;;;;;;;11.68;63.04;99861.26;1814918;77;25816;-58
2020/12/05 11:16:23;;;;;;;28.12;16.65;;;;;;;11.83;64.30;99865.30;1814699;77;25952;-57
2020/12/05 11:18:53;;;;;;;24.95;15.10;;;;;;;11.99;62.94;99863.44;1814717;78;25670;-58
2020/12/05 11:21:19;;;;;;;25.65;16.37;;;;;;;12.09;62.52;99851.63;1814955;78;25620;-59
2020/12/05 11:23:47;;;;;;;24.55;15.63;;;;;;;12.34;62.30;99861.25;1814880;79;25756;-59
2020/12/05 11:26:22;;;;;;;22.80;14.83;;;;;;;12.50;62.02;99860.11;1814878;79;25706;-57
2020/12/05 11:28:49;;;;;;;22.95;16.25;;;;;;;12.60;62.32;99872.45;1816712;78;25625;-58
2020/12/05 11:31:16;;;;;;;23.83;16.52;;;;;;;12.77;61.51;99882.36;1818295;78;25598;-58
2020/12/05 11:33:43;;;;;;;26.50;17.17;;;;;;;12.86;61.09;99878.44;1818310;78;25630;-59
2020/12/05 11:36:10;;;;;;;23.87;15.83;;;;;;;12.85;59.81;99876.06;1818357;78;25945;-59
2020/12/05 11:38:38;;;;;;;27.30;17.05;;;;;;;12.85;60.52;99885.55;1818227;78;25683;-59
2020/12/05 11:41:04;;;;;;;23.87;16.35;;;;;;;12.92;61.06;99884.44;1817679;78;25619;-58
2020/12/05 11:43:32;;;;;;;21.00;15.28;;;;;;;12.97;59.71;99884.23;1817741;78;25808;-58